createdAt,value
2022-08-24T00:00:07.771Z,25.29
2022-08-24T00:02:34.313Z,25.22
2022-08-24T00:05:01.278Z,25.16
2022-08-24T00:07:28.331Z,25.22
2022-08-24T00:09:55.269Z,25.17
2022-08-24T00:12:21.986Z,24.96
2022-08-24T00:14:49.423Z,24.94
2022-08-24T00:17:16.411Z,24.98
2022-08-24T00:19:43.004Z,24.96
2022-08-24T00:22:10.084Z,24.93
2022-08-24T00:24:36.579Z,24.93
2022-08-24T00:27:03.524Z,24.84
2022-08-24T00:29:30.027Z,24.86
2022-08-24T00:31:56.578Z,24.76
2022-08-24T00:34:23.186Z,24.72
2022-08-24T00:36:49.792Z,24.73
2022-08-24T00:39:16.344Z,24.75
2022-08-24T00:41:44.985Z,24.79
2022-08-24T00:44:12.007Z,24.72
2022-08-24T00:46:48.427Z,24.76
2022-08-24T00:49:56.342Z,24.75
2022-08-24T00:52:39.343Z,24.73
2022-08-24T00:55:13.740Z,24.73
2022-08-24T00:57:43.294Z,24.73
2022-08-24T01:00:23.495Z,24.59
2022-08-24T01:02:54.548Z,24.54
2022-08-24T01:05:21.123Z,24.58
2022-08-24T01:07:50.686Z,24.61
2022-08-24T01:10:20.632Z,24.66
2022-08-24T01:12:56.133Z,24.64
2022-08-24T01:15:30.950Z,24.66
2022-08-24T01:18:16.631Z,24.74
2022-08-24T01:20:46.489Z,24.69
2022-08-24T01:23:38.386Z,24.78
2022-08-24T01:26:07.647Z,24.80
2022-08-24T01:28:37.035Z,24.74
2022-08-24T01:31:03.667Z,24.70
2022-08-24T01:33:31.848Z,24.74
2022-08-24T01:36:02.454Z,24.64
2022-08-24T01:38:28.923Z,24.61
2022-08-24T01:40:59.877Z,24.54
2022-08-24T01:43:26.476Z,24.48
2022-08-24T01:45:54.003Z,24.39
2022-08-24T01:48:22.811Z,24.30
2022-08-24T01:50:49.519Z,24.28
2022-08-24T01:53:16.130Z,24.30
2022-08-24T01:55:44.198Z,24.33
2022-08-24T01:58:10.939Z,24.33
2022-08-24T02:00:37.744Z,24.26
2022-08-24T02:03:05.164Z,24.19
2022-08-24T02:05:31.728Z,24.20
2022-08-24T02:07:58.217Z,24.13
2022-08-24T02:10:26.123Z,24.03
2022-08-24T02:12:58.900Z,23.91
2022-08-24T02:15:27.291Z,23.91
2022-08-24T02:17:54.954Z,23.90
2022-08-24T02:20:22.067Z,23.87
2022-08-24T02:22:52.926Z,23.78
2022-08-24T02:25:19.533Z,23.69
2022-08-24T02:27:46.036Z,23.59
2022-08-24T02:30:12.758Z,23.47
2022-08-24T02:32:41.772Z,23.46
2022-08-24T02:35:09.000Z,23.38
2022-08-24T02:37:35.858Z,23.30
2022-08-24T02:40:11.598Z,23.32
2022-08-24T02:42:38.253Z,23.29
2022-08-24T02:45:05.202Z,23.17
2022-08-24T02:47:37.976Z,23.09
2022-08-24T02:50:07.612Z,22.97
2022-08-24T02:52:35.827Z,22.92
2022-08-24T02:55:02.299Z,22.94
2022-08-24T02:57:28.775Z,22.97
2022-08-24T02:59:55.209Z,22.96
2022-08-24T03:02:21.688Z,23.03
2022-08-24T03:04:49.474Z,23.09
2022-08-24T03:07:16.329Z,22.98
2022-08-24T03:09:42.786Z,22.93
2022-08-24T03:12:09.276Z,22.94
2022-08-24T03:14:35.906Z,22.94
2022-08-24T03:17:02.410Z,22.99
2022-08-24T03:19:29.195Z,22.96
2022-08-24T03:21:56.737Z,22.92
2022-08-24T03:24:23.349Z,22.84
2022-08-24T03:26:50.232Z,22.83
2022-08-24T03:29:16.814Z,22.83
2022-08-24T03:31:43.684Z,22.90
2022-08-24T03:34:13.401Z,22.95
2022-08-24T03:36:41.196Z,22.99
2022-08-24T03:39:07.989Z,23.11
2022-08-24T03:41:34.448Z,23.10
2022-08-24T03:44:03.384Z,23.05
2022-08-24T03:46:30.698Z,23.10
2022-08-24T03:48:58.719Z,23.17
2022-08-24T03:51:27.021Z,23.27
2022-08-24T03:53:54.222Z,23.27
2022-08-24T03:56:21.009Z,23.23
2022-08-24T03:58:47.646Z,23.28
2022-08-24T04:01:14.952Z,23.17
2022-08-24T04:03:43.393Z,23.10
2022-08-24T04:06:11.886Z,23.13
2022-08-24T04:08:39.535Z,23.14
2022-08-24T04:11:06.175Z,23.05
2022-08-24T04:13:32.837Z,22.97
2022-08-24T04:16:05.285Z,22.92
2022-08-24T04:18:31.775Z,22.84
2022-08-24T04:20:58.306Z,22.80
2022-08-24T04:23:41.254Z,22.78
2022-08-24T04:26:11.926Z,22.76
2022-08-24T04:28:38.474Z,22.77
2022-08-24T04:31:06.119Z,22.73
2022-08-24T04:33:32.946Z,22.82
2022-08-24T04:35:59.414Z,22.77
2022-08-24T04:38:26.833Z,22.78
2022-08-24T04:40:53.615Z,22.76
2022-08-24T04:43:20.201Z,22.80
2022-08-24T04:45:48.073Z,23.03
2022-08-24T04:48:15.768Z,22.88
2022-08-24T04:50:43.629Z,22.80
2022-08-24T04:53:12.011Z,22.79
2022-08-24T04:55:46.839Z,22.94
2022-08-24T04:58:14.220Z,23.07
2022-08-24T05:00:41.084Z,23.13
2022-08-24T05:03:07.855Z,23.23
2022-08-24T05:05:34.775Z,23.30
2022-08-24T05:08:01.260Z,23.27
2022-08-24T05:10:29.324Z,23.50
2022-08-24T05:13:00.336Z,23.65
2022-08-24T05:15:26.839Z,23.66
2022-08-24T05:17:53.266Z,23.73
2022-08-24T05:20:20.153Z,23.78
2022-08-24T05:22:46.666Z,23.82
2022-08-24T05:25:13.195Z,23.97
2022-08-24T05:27:39.604Z,24.07
2022-08-24T05:30:06.777Z,24.20
2022-08-24T05:32:33.345Z,24.31
2022-08-24T05:35:01.292Z,24.50
2022-08-24T05:37:27.716Z,24.68
2022-08-24T05:39:54.186Z,24.80
2022-08-24T05:42:20.698Z,24.89
2022-08-24T05:44:47.175Z,24.86
2022-08-24T05:47:14.079Z,24.81
2022-08-24T05:49:41.668Z,24.71
2022-08-24T05:52:08.840Z,24.78
2022-08-24T05:54:35.348Z,24.87
2022-08-24T05:57:04.930Z,24.90
2022-08-24T05:59:32.022Z,24.73
2022-08-24T06:01:58.499Z,24.65
2022-08-24T06:04:25.768Z,24.53
2022-08-24T06:06:53.018Z,24.47
2022-08-24T06:09:19.518Z,24.53
2022-08-24T06:11:47.582Z,24.45
2022-08-24T06:14:16.394Z,24.57
2022-08-24T06:16:45.877Z,24.59
2022-08-24T06:19:14.507Z,24.54
2022-08-24T06:21:41.462Z,24.66
2022-08-24T06:24:08.115Z,24.70
2022-08-24T06:26:53.114Z,24.68
2022-08-24T06:29:20.437Z,25.02
2022-08-24T06:31:54.092Z,25.00
2022-08-24T06:34:22.695Z,25.03
2022-08-24T06:36:49.217Z,25.20
2022-08-24T06:39:15.634Z,25.11
2022-08-24T06:41:43.482Z,25.17
2022-08-24T06:44:09.984Z,25.32
2022-08-24T06:46:36.537Z,25.61
2022-08-24T06:49:03.427Z,25.79
2022-08-24T06:51:30.229Z,25.87
2022-08-24T06:53:56.655Z,26.15
2022-08-24T06:56:23.280Z,26.39
2022-08-24T06:58:49.778Z,26.44
2022-08-24T07:01:22.788Z,26.57
2022-08-24T07:03:49.418Z,26.56
2022-08-24T07:06:15.929Z,26.74
2022-08-24T07:08:43.123Z,26.83
2022-08-24T07:11:10.544Z,27.05
2022-08-24T07:13:37.213Z,27.61
2022-08-24T07:16:04.696Z,27.88
2022-08-24T07:18:32.525Z,27.84
2022-08-24T07:21:02.597Z,28.06
2022-08-24T07:23:41.554Z,28.15
2022-08-24T07:26:17.184Z,28.48
2022-08-24T07:28:51.864Z,28.30
2022-08-24T07:31:18.987Z,28.46
2022-08-24T07:33:45.480Z,28.64
2022-08-24T07:36:12.866Z,28.44
2022-08-24T07:38:48.900Z,28.46
2022-08-24T07:41:38.300Z,28.66
2022-08-24T07:44:01.772Z,28.75
2022-08-24T07:46:28.419Z,28.38
2022-08-24T07:49:04.990Z,28.64
2022-08-24T07:51:38.883Z,28.78
2022-08-24T07:54:12.203Z,28.72
2022-08-24T07:56:40.582Z,29.00
2022-08-24T07:59:11.070Z,29.01
2022-08-24T08:01:39.871Z,29.09
2022-08-24T08:04:06.441Z,29.20
2022-08-24T08:06:32.916Z,29.35
2022-08-24T08:08:59.374Z,29.32
2022-08-24T08:11:25.859Z,29.57
2022-08-24T08:13:54.171Z,29.82
2022-08-24T08:16:21.719Z,29.94
2022-08-24T08:18:52.401Z,30.18
2022-08-24T08:21:46.103Z,30.20
2022-08-24T08:24:15.129Z,30.08
2022-08-24T08:26:42.899Z,30.24
2022-08-24T08:29:10.585Z,30.59
2022-08-24T08:31:38.131Z,30.85
2022-08-24T08:34:05.630Z,30.88
2022-08-24T08:36:32.885Z,31.02
2022-08-24T08:38:59.412Z,31.11
2022-08-24T08:41:42.050Z,31.29
2022-08-24T08:44:34.190Z,31.33
2022-08-24T08:47:38.185Z,31.28
2022-08-24T08:50:15.200Z,31.27
2022-08-24T08:53:15.357Z,31.14
2022-08-24T08:55:58.412Z,31.23
2022-08-24T08:58:57.407Z,31.58
2022-08-24T09:02:01.855Z,31.68
2022-08-24T09:04:51.680Z,31.88
2022-08-24T09:07:24.157Z,32.12
2022-08-24T09:10:12.606Z,32.20
2022-08-24T09:13:01.001Z,32.05
2022-08-24T09:16:10.422Z,32.02
2022-08-24T09:18:46.023Z,32.10
2022-08-24T09:21:41.520Z,32.29
2022-08-24T09:24:26.264Z,32.49
2022-08-24T09:27:07.429Z,32.42
2022-08-24T09:29:58.812Z,32.45
2022-08-24T09:32:33.502Z,32.36
2022-08-24T09:35:03.935Z,32.17
2022-08-24T09:37:34.903Z,32.56
2022-08-24T09:40:39.428Z,32.89
2022-08-24T09:43:08.760Z,32.94
2022-08-24T09:45:57.173Z,32.69
2022-08-24T09:48:45.756Z,33.04
2022-08-24T09:51:49.885Z,32.99
2022-08-24T09:54:54.098Z,33.09
2022-08-24T09:58:01.085Z,32.87
2022-08-24T10:00:31.699Z,32.86
2022-08-24T10:03:03.773Z,32.92
2022-08-24T10:05:47.187Z,33.40
2022-08-24T10:08:39.425Z,33.51
2022-08-24T10:11:24.144Z,33.35
2022-08-24T10:14:47.476Z,33.26
2022-08-24T10:17:22.865Z,33.34
2022-08-24T10:20:04.705Z,33.46
2022-08-24T10:22:37.680Z,33.09
2022-08-24T10:25:22.860Z,33.25
2022-08-24T10:27:58.075Z,33.13
2022-08-24T10:30:44.732Z,33.28
2022-08-24T10:33:20.615Z,33.56
2022-08-24T10:36:07.915Z,33.73
2022-08-24T10:39:10.170Z,33.88
2022-08-24T10:41:48.591Z,34.21
2022-08-24T10:44:32.458Z,34.42
2022-08-24T10:51:00.076Z,34.04
2022-08-24T10:53:31.042Z,33.95
2022-08-24T10:56:11.891Z,33.98
2022-08-24T10:58:51.014Z,34.04
2022-08-24T11:01:36.746Z,34.38
2022-08-24T11:04:11.713Z,34.28
2022-08-24T11:06:43.830Z,34.45
2022-08-24T11:09:19.439Z,34.39
2022-08-24T11:11:48.946Z,34.10
2022-08-24T11:14:15.268Z,34.21
2022-08-24T11:16:45.063Z,34.51
2022-08-24T11:19:14.747Z,34.38
2022-08-24T11:21:48.881Z,34.22
2022-08-24T11:24:20.446Z,34.43
2022-08-24T11:27:02.073Z,34.54
2022-08-24T11:29:50.162Z,34.32
2022-08-24T11:32:38.092Z,34.54
2022-08-24T11:35:29.850Z,35.13
2022-08-24T11:38:07.682Z,35.50
2022-08-24T11:40:39.730Z,35.38
2022-08-24T11:43:27.953Z,35.09
2022-08-24T11:46:12.318Z,34.76
2022-08-24T11:48:45.713Z,34.98
2022-08-24T11:51:32.185Z,34.97
2022-08-24T11:54:24.640Z,34.68
2022-08-24T11:57:15.848Z,34.50
2022-08-24T12:00:04.752Z,34.62
2022-08-24T12:02:43.002Z,35.11
2022-08-24T12:05:25.956Z,35.05
2022-08-24T12:08:10.832Z,34.92
2022-08-24T12:10:57.209Z,35.02
2022-08-24T12:13:45.239Z,35.05
2022-08-24T12:16:16.461Z,35.27
2022-08-24T12:19:19.983Z,35.32
2022-08-24T12:21:48.453Z,35.31
2022-08-24T12:24:39.602Z,34.86
2022-08-24T12:27:15.693Z,34.82
2022-08-24T12:29:50.214Z,35.23
2022-08-24T12:32:24.515Z,35.68
2022-08-24T12:35:10.802Z,35.85
2022-08-24T12:38:03.935Z,36.09
2022-08-24T12:40:48.142Z,35.52
2022-08-24T12:43:28.739Z,35.25
2022-08-24T12:46:01.275Z,34.84
2022-08-24T12:48:35.839Z,35.03
2022-08-24T12:51:29.271Z,35.26
2022-08-24T12:54:17.535Z,35.09
2022-08-24T12:57:05.090Z,34.90
2022-08-24T12:59:38.748Z,35.03
2022-08-24T13:02:27.956Z,35.36
2022-08-24T13:05:00.349Z,35.31
2022-08-24T13:07:32.290Z,34.91
2022-08-24T13:09:58.682Z,34.53
2022-08-24T13:12:46.591Z,34.52
2022-08-24T13:15:31.112Z,34.68
2022-08-24T13:18:08.692Z,34.91
2022-08-24T13:20:36.139Z,34.79
2022-08-24T13:23:11.732Z,34.79
2022-08-24T13:25:47.119Z,34.76
2022-08-24T13:28:25.643Z,35.41
2022-08-24T13:31:07.365Z,35.60
2022-08-24T13:33:38.028Z,35.61
2022-08-24T13:36:29.187Z,35.27
2022-08-24T13:39:03.957Z,35.36
2022-08-24T13:41:49.494Z,35.19
2022-08-24T13:44:27.953Z,35.16
2022-08-24T13:47:02.971Z,35.13
2022-08-24T13:50:07.726Z,34.80
2022-08-24T13:52:45.123Z,34.71
2022-08-24T13:55:20.785Z,34.52
2022-08-24T13:58:08.026Z,34.33
2022-08-24T14:00:43.956Z,34.31
2022-08-24T14:03:19.384Z,34.43
2022-08-24T14:06:04.796Z,34.76
2022-08-24T14:08:55.375Z,35.22
2022-08-24T14:11:38.605Z,35.51
2022-08-24T14:14:36.071Z,35.50
2022-08-24T14:17:48.564Z,35.45
2022-08-24T14:20:40.767Z,35.61
2022-08-24T14:23:13.297Z,35.45
2022-08-24T14:25:39.821Z,35.52
2022-08-24T14:28:33.340Z,35.38
2022-08-24T14:31:21.057Z,35.76
2022-08-24T14:34:13.359Z,35.95
2022-08-24T14:36:48.699Z,35.86
2022-08-24T14:39:35.775Z,36.03
2022-08-24T14:42:19.761Z,35.81
2022-08-24T14:44:49.143Z,35.37
2022-08-24T14:48:00.825Z,35.35
2022-08-24T14:50:55.526Z,35.32
2022-08-24T14:53:59.552Z,35.47
2022-08-24T14:56:54.920Z,35.65
2022-08-24T14:59:38.767Z,35.07
2022-08-24T15:02:42.963Z,35.19
2022-08-24T15:05:32.478Z,35.65
2022-08-24T15:08:00.937Z,35.68
2022-08-24T15:10:51.210Z,35.96
2022-08-24T15:13:27.225Z,35.95
2022-08-24T15:16:14.721Z,35.86
2022-08-24T15:18:51.796Z,35.90
2022-08-24T15:21:29.476Z,35.89
2022-08-24T15:24:13.891Z,36.05
2022-08-24T15:26:55.641Z,36.10
2022-08-24T15:29:25.419Z,36.24
2022-08-24T15:32:09.369Z,35.92
2022-08-24T15:34:46.369Z,35.47
2022-08-24T15:37:15.990Z,35.42
2022-08-24T15:39:43.070Z,35.35
2022-08-24T15:42:13.484Z,35.37
2022-08-24T15:44:42.386Z,35.36
2022-08-24T15:47:25.255Z,35.81
2022-08-24T15:50:03.571Z,36.09
2022-08-24T15:52:43.471Z,36.20
2022-08-24T15:55:36.404Z,35.88
2022-08-24T15:58:18.528Z,35.97
2022-08-24T16:01:03.742Z,35.83
2022-08-24T16:04:00.727Z,35.43
2022-08-24T16:06:33.365Z,35.43
2022-08-24T16:09:09.184Z,35.60
2022-08-24T16:11:38.992Z,35.53
2022-08-24T16:14:12.488Z,35.45
2022-08-24T16:16:42.990Z,35.60
2022-08-24T16:19:29.049Z,35.67
2022-08-24T16:21:58.411Z,35.52
2022-08-24T16:24:35.049Z,35.29
2022-08-24T16:27:11.583Z,35.18
2022-08-24T16:29:37.919Z,35.11
2022-08-24T16:32:21.429Z,35.22
2022-08-24T16:35:08.915Z,35.35
2022-08-24T16:37:35.435Z,35.30
2022-08-24T16:40:01.958Z,35.25
2022-08-24T16:42:29.841Z,35.27
2022-08-24T16:44:57.408Z,34.82
2022-08-24T16:47:24.573Z,34.66
2022-08-24T16:49:51.770Z,34.63
2022-08-24T16:52:18.741Z,34.34
2022-08-24T16:54:45.604Z,34.20
2022-08-24T16:57:22.728Z,34.17
2022-08-24T16:59:50.184Z,34.18
2022-08-24T17:02:18.608Z,34.26
2022-08-24T17:04:45.258Z,34.18
2022-08-24T17:07:17.034Z,33.93
2022-08-24T17:09:46.084Z,33.63
2022-08-24T17:12:12.975Z,34.04
2022-08-24T17:14:39.624Z,33.81
2022-08-24T17:17:07.639Z,33.65
2022-08-24T17:19:34.084Z,33.79
2022-08-24T17:22:00.533Z,33.65
2022-08-24T17:24:27.074Z,33.78
2022-08-24T17:26:54.564Z,33.73
2022-08-24T17:29:21.013Z,33.76
2022-08-24T17:31:49.924Z,33.72
2022-08-24T17:34:16.748Z,33.77
2022-08-24T17:36:46.588Z,33.71
2022-08-24T17:39:14.187Z,33.59
2022-08-24T17:41:40.878Z,33.39
2022-08-24T17:44:10.450Z,33.30
2022-08-24T17:46:37.264Z,33.13
2022-08-24T17:49:03.972Z,32.81
2022-08-24T17:51:30.418Z,32.74
2022-08-24T17:53:56.841Z,32.67
2022-08-24T17:56:23.493Z,32.50
2022-08-24T17:59:08.599Z,32.44
2022-08-24T18:01:35.079Z,32.21
2022-08-24T18:04:01.563Z,31.86
2022-08-24T18:06:28.655Z,31.60
2022-08-24T18:08:58.132Z,31.44
2022-08-24T18:11:26.165Z,31.31
2022-08-24T18:13:54.355Z,31.24
2022-08-24T18:16:23.477Z,31.11
2022-08-24T18:18:51.830Z,30.88
2022-08-24T18:21:20.124Z,30.81
2022-08-24T18:23:48.387Z,30.87
2022-08-24T18:26:35.260Z,30.73
2022-08-24T18:29:10.446Z,30.92
2022-08-24T18:31:37.626Z,30.72
2022-08-24T18:34:04.450Z,30.43
2022-08-24T18:36:31.140Z,30.29
2022-08-24T18:38:57.635Z,30.19
2022-08-24T18:41:27.480Z,29.98
2022-08-24T18:43:54.676Z,29.90
2022-08-24T18:46:21.535Z,29.73
2022-08-24T18:48:47.965Z,29.71
2022-08-24T18:51:16.920Z,29.58
2022-08-24T18:53:43.354Z,29.54
2022-08-24T18:56:12.509Z,29.44
2022-08-24T18:58:39.373Z,29.43
2022-08-24T19:01:06.287Z,29.30
2022-08-24T19:03:32.942Z,29.24
2022-08-24T19:05:59.453Z,29.18
2022-08-24T19:08:25.928Z,29.36
2022-08-24T19:10:52.597Z,29.16
2022-08-24T19:13:19.300Z,29.07
2022-08-24T19:15:47.282Z,28.99
2022-08-24T19:18:15.894Z,28.92
2022-08-24T19:20:48.290Z,28.85
2022-08-24T19:23:23.061Z,28.81
2022-08-24T19:25:49.679Z,28.82
2022-08-24T19:28:18.735Z,28.88
2022-08-24T19:30:46.787Z,28.98
2022-08-24T19:33:19.893Z,28.85
2022-08-24T19:35:46.727Z,28.73
2022-08-24T19:38:13.348Z,28.57
2022-08-24T19:40:39.941Z,28.56
2022-08-24T19:43:14.969Z,28.55
2022-08-24T19:46:01.394Z,28.60
2022-08-24T19:48:30.129Z,28.68
2022-08-24T19:50:56.588Z,28.60
2022-08-24T19:53:24.437Z,28.50
2022-08-24T19:55:50.905Z,28.48
2022-08-24T19:58:52.886Z,28.47
2022-08-24T20:01:34.502Z,28.47
2022-08-24T20:04:02.550Z,28.60
2022-08-24T20:06:30.513Z,28.44
2022-08-24T20:08:56.962Z,28.57
2022-08-24T20:11:25.240Z,28.44
2022-08-24T20:13:51.836Z,28.44
2022-08-24T20:16:19.832Z,28.47
2022-08-24T20:18:47.071Z,28.37
2022-08-24T20:21:14.859Z,28.47
2022-08-24T20:23:41.679Z,28.50
2022-08-24T20:26:09.708Z,28.43
2022-08-24T20:28:43.486Z,28.35
2022-08-24T20:31:10.039Z,28.36
2022-08-24T20:33:36.539Z,28.15
2022-08-24T20:36:03.454Z,28.04
2022-08-24T20:38:32.004Z,27.92
2022-08-24T20:40:59.147Z,27.84
2022-08-24T20:43:25.587Z,27.74
2022-08-24T20:45:52.786Z,27.72
2022-08-24T20:48:28.883Z,27.67
2022-08-24T20:50:55.511Z,27.58
2022-08-24T20:53:21.966Z,27.56
2022-08-24T20:55:48.543Z,27.42
2022-08-24T20:58:17.464Z,27.35
2022-08-24T21:00:44.590Z,27.36
2022-08-24T21:03:11.106Z,27.40
2022-08-24T21:05:38.157Z,27.39
2022-08-24T21:08:05.432Z,27.31
2022-08-24T21:10:31.886Z,27.27
2022-08-24T21:12:59.325Z,27.18
2022-08-24T21:15:26.142Z,27.23
2022-08-24T21:17:52.605Z,27.41
2022-08-24T21:20:19.749Z,27.37
2022-08-24T21:22:46.359Z,27.31
2022-08-24T21:25:14.413Z,27.22
2022-08-24T21:27:42.078Z,27.14
2022-08-24T21:30:10.144Z,27.12
2022-08-24T21:32:55.200Z,27.22
2022-08-24T21:35:22.482Z,27.05
2022-08-24T21:37:50.150Z,26.84
2022-08-24T21:40:16.863Z,26.82
2022-08-24T21:42:43.359Z,26.86
2022-08-24T21:45:10.213Z,26.83
2022-08-24T21:47:37.309Z,26.69
2022-08-24T21:50:05.160Z,26.60
2022-08-24T21:52:31.693Z,26.37
2022-08-24T21:54:59.359Z,26.39
2022-08-24T21:57:27.599Z,26.28
2022-08-24T21:59:54.012Z,26.26
2022-08-24T22:02:20.629Z,26.15
2022-08-24T22:04:47.726Z,26.05
2022-08-24T22:07:25.879Z,25.95
2022-08-24T22:09:52.385Z,25.85
2022-08-24T22:12:18.852Z,25.78
2022-08-24T22:14:45.327Z,25.75
2022-08-24T22:17:11.832Z,25.71
2022-08-24T22:19:38.460Z,25.72
2022-08-24T22:22:05.188Z,25.62
2022-08-24T22:24:31.778Z,25.50
2022-08-24T22:26:58.230Z,25.45
2022-08-24T22:29:24.659Z,25.40
2022-08-24T22:31:51.089Z,25.38
2022-08-24T22:34:20.797Z,25.37
2022-08-24T22:36:48.468Z,25.31
2022-08-24T22:39:14.943Z,25.13
2022-08-24T22:41:41.497Z,25.16
2022-08-24T22:44:21.037Z,25.09
2022-08-24T22:46:56.261Z,25.01
2022-08-24T22:49:31.986Z,24.97
2022-08-24T22:51:59.010Z,25.05
2022-08-24T22:54:26.443Z,24.94
2022-08-24T22:56:54.767Z,24.95
2022-08-24T22:59:35.798Z,24.92
2022-08-24T23:02:08.593Z,24.94
2022-08-24T23:04:37.414Z,24.99
2022-08-24T23:07:04.936Z,25.02
2022-08-24T23:09:43.969Z,25.06
2022-08-24T23:12:13.764Z,25.05
2022-08-24T23:14:40.393Z,24.95
2022-08-24T23:17:06.838Z,24.83
2022-08-24T23:19:51.954Z,24.76
2022-08-24T23:22:20.053Z,24.77
2022-08-24T23:24:47.905Z,24.63
2022-08-24T23:27:16.522Z,24.50
2022-08-24T23:29:44.085Z,24.45
2022-08-24T23:32:10.694Z,24.42
2022-08-24T23:34:37.190Z,24.38
2022-08-24T23:37:03.735Z,24.31
2022-08-24T23:39:30.432Z,24.31
2022-08-24T23:41:57.181Z,24.25
2022-08-24T23:44:25.984Z,24.26
2022-08-24T23:46:53.092Z,24.12
2022-08-24T23:49:20.803Z,24.09
2022-08-24T23:51:48.146Z,24.01
2022-08-24T23:54:15.738Z,23.97
2022-08-24T23:56:44.643Z,24.05
2022-08-24T23:59:14.173Z,24.01
